createdAt,value
2023-03-06T00:00:49.783Z,84.01
2023-03-06T00:03:16.377Z,84.51
2023-03-06T00:05:42.860Z,84.71
2023-03-06T00:08:09.335Z,85.07
2023-03-06T00:10:35.823Z,85.01
2023-03-06T00:13:05.222Z,85.09
2023-03-06T00:15:31.741Z,84.84
2023-03-06T00:17:58.299Z,85.15
2023-03-06T00:20:25.856Z,85.20
2023-03-06T00:22:52.165Z,85.14
2023-03-06T00:25:21.114Z,85.05
2023-03-06T00:27:47.996Z,85.58
2023-03-06T00:30:17.862Z,85.53
2023-03-06T00:32:44.492Z,86.02
2023-03-06T00:35:12.003Z,86.21
2023-03-06T00:37:38.562Z,86.46
2023-03-06T00:40:06.491Z,86.68
2023-03-06T00:42:32.952Z,86.91
2023-03-06T00:44:59.249Z,87.21
2023-03-06T00:47:25.567Z,87.15
2023-03-06T00:49:51.889Z,87.21
2023-03-06T00:52:18.203Z,87.51
2023-03-06T00:54:44.554Z,87.63
2023-03-06T00:57:10.897Z,87.84
2023-03-06T00:59:37.261Z,87.76
2023-03-06T01:02:04.154Z,87.33
2023-03-06T01:04:31.073Z,87.71
2023-03-06T01:06:57.437Z,87.94
2023-03-06T01:09:24.341Z,87.67
2023-03-06T01:11:50.780Z,87.64
2023-03-06T01:14:17.182Z,87.45
2023-03-06T01:16:43.564Z,87.45
2023-03-06T01:19:10.058Z,87.26
2023-03-06T01:21:36.396Z,87.37
2023-03-06T01:24:02.732Z,87.70
2023-03-06T01:26:29.183Z,87.31
2023-03-06T01:28:55.543Z,87.29
2023-03-06T01:31:21.890Z,87.39
2023-03-06T01:33:48.231Z,87.22
2023-03-06T01:36:14.550Z,87.16
2023-03-06T01:38:40.888Z,87.29
2023-03-06T01:41:07.731Z,87.15
2023-03-06T01:43:36.972Z,86.96
2023-03-06T01:46:34.082Z,86.81
2023-03-06T01:49:37.661Z,87.42
2023-03-06T01:52:09.135Z,87.43
2023-03-06T01:54:56.861Z,87.32
2023-03-06T01:57:30.382Z,87.20
2023-03-06T02:00:08.376Z,87.05
2023-03-06T02:02:35.986Z,87.00
2023-03-06T02:05:05.117Z,87.60
2023-03-06T02:07:31.921Z,87.34
2023-03-06T02:09:58.540Z,87.16
2023-03-06T02:12:26.167Z,87.18
2023-03-06T02:14:52.670Z,87.58
2023-03-06T02:17:21.825Z,88.23
2023-03-06T02:20:07.426Z,88.27
2023-03-06T02:22:52.331Z,88.36
2023-03-06T02:25:31.437Z,88.51
2023-03-06T02:27:57.797Z,88.77
2023-03-06T02:30:26.489Z,88.51
2023-03-06T02:32:52.794Z,88.25
2023-03-06T02:35:23.452Z,88.69
2023-03-06T02:37:49.905Z,88.35
2023-03-06T02:40:18.576Z,88.38
2023-03-06T02:42:47.430Z,88.52
2023-03-06T02:45:17.463Z,89.10
2023-03-06T02:47:43.776Z,89.14
2023-03-06T02:50:10.701Z,89.59
2023-03-06T02:52:37.017Z,89.49
2023-03-06T02:55:03.805Z,89.78
2023-03-06T02:57:30.105Z,90.14
2023-03-06T02:59:56.482Z,90.63
2023-03-06T03:02:22.807Z,91.10
2023-03-06T03:04:49.150Z,91.04
2023-03-06T03:07:15.481Z,91.21
2023-03-06T03:09:41.919Z,91.10
2023-03-06T03:12:08.533Z,91.78
2023-03-06T03:14:34.940Z,91.90
2023-03-06T03:17:01.305Z,91.87
2023-03-06T03:19:27.817Z,91.92
2023-03-06T03:21:54.180Z,91.98
2023-03-06T03:24:20.507Z,92.16
2023-03-06T03:26:46.868Z,92.28
2023-03-06T03:29:13.254Z,92.45
2023-03-06T03:31:39.559Z,92.20
2023-03-06T03:34:05.957Z,91.93
2023-03-06T03:36:32.283Z,91.91
2023-03-06T03:38:58.577Z,92.49
2023-03-06T03:41:24.901Z,92.43
2023-03-06T03:43:51.220Z,92.63
2023-03-06T03:46:17.866Z,92.89
2023-03-06T03:48:44.172Z,93.15
2023-03-06T03:51:13.086Z,93.09
2023-03-06T03:53:39.645Z,93.26
2023-03-06T03:56:06.209Z,93.04
2023-03-06T03:58:32.517Z,93.29
2023-03-06T04:00:58.962Z,93.34
2023-03-06T04:03:25.333Z,93.84
2023-03-06T04:05:51.773Z,94.16
2023-03-06T04:08:18.089Z,93.44
2023-03-06T04:10:44.400Z,93.56
2023-03-06T04:13:10.700Z,93.72
2023-03-06T04:15:37.076Z,93.90
2023-03-06T04:18:03.741Z,94.44
2023-03-06T04:20:30.386Z,94.85
2023-03-06T04:22:56.709Z,95.04
2023-03-06T04:25:23.019Z,95.02
2023-03-06T04:27:49.338Z,94.81
2023-03-06T04:30:15.771Z,95.32
2023-03-06T04:32:42.149Z,96.14
2023-03-06T04:35:08.818Z,96.20
2023-03-06T04:37:35.152Z,96.66
2023-03-06T04:40:01.474Z,97.19
2023-03-06T04:42:27.891Z,97.01
2023-03-06T04:44:54.272Z,97.00
2023-03-06T04:47:20.597Z,97.29
2023-03-06T04:49:47.232Z,97.05
2023-03-06T04:52:13.584Z,97.08
2023-03-06T04:54:39.879Z,96.86
2023-03-06T04:57:06.310Z,96.55
2023-03-06T04:59:32.625Z,96.04
2023-03-06T05:01:58.969Z,96.04
2023-03-06T05:04:25.334Z,96.01
2023-03-06T05:06:51.737Z,95.90
2023-03-06T05:09:18.040Z,95.93
2023-03-06T05:11:44.340Z,96.09
2023-03-06T05:14:10.644Z,96.21
2023-03-06T05:16:36.980Z,96.05
2023-03-06T05:19:03.430Z,95.99
2023-03-06T05:21:29.754Z,95.64
2023-03-06T05:23:56.074Z,95.90
2023-03-06T05:26:22.481Z,95.89
2023-03-06T05:28:48.866Z,95.90
2023-03-06T05:31:15.205Z,95.88
2023-03-06T05:33:41.498Z,95.68
2023-03-06T05:36:09.432Z,95.96
2023-03-06T05:38:35.859Z,95.97
2023-03-06T05:41:02.172Z,95.94
2023-03-06T05:43:28.468Z,96.15
2023-03-06T05:46:05.801Z,96.21
2023-03-06T05:48:32.894Z,95.97
2023-03-06T05:51:00.763Z,95.63
2023-03-06T05:53:27.571Z,95.15
2023-03-06T05:56:02.884Z,94.80
2023-03-06T05:58:30.304Z,94.80
2023-03-06T06:00:56.727Z,94.10
2023-03-06T06:03:23.627Z,93.93
2023-03-06T06:05:50.891Z,94.24
2023-03-06T06:08:17.708Z,94.37
2023-03-06T06:10:44.022Z,94.29
2023-03-06T06:13:10.309Z,94.37
2023-03-06T06:15:38.529Z,94.22
2023-03-06T06:18:04.942Z,93.91
2023-03-06T06:20:31.304Z,93.77
2023-03-06T06:22:57.833Z,93.91
2023-03-06T06:25:24.182Z,93.66
2023-03-06T06:27:50.469Z,93.34
2023-03-06T06:30:17.077Z,93.05
2023-03-06T06:32:43.413Z,93.08
2023-03-06T06:35:10.064Z,92.85
2023-03-06T06:37:36.390Z,93.01
2023-03-06T06:40:02.904Z,92.81
2023-03-06T06:42:35.182Z,92.06
2023-03-06T06:45:05.117Z,91.49
2023-03-06T06:47:31.861Z,91.77
2023-03-06T06:49:58.211Z,91.16
2023-03-06T06:52:25.193Z,90.95
2023-03-06T06:54:52.329Z,90.63
2023-03-06T06:57:18.695Z,90.47
2023-03-06T06:59:45.019Z,90.34
2023-03-06T07:02:13.018Z,89.72
2023-03-06T07:04:44.303Z,89.47
2023-03-06T07:07:15.724Z,89.55
2023-03-06T07:09:42.222Z,89.29
2023-03-06T07:12:08.799Z,88.94
2023-03-06T07:14:36.106Z,88.92
2023-03-06T07:17:02.505Z,88.41
2023-03-06T07:19:28.811Z,88.08
2023-03-06T07:21:55.149Z,87.71
2023-03-06T07:24:21.527Z,87.87
2023-03-06T07:26:48.186Z,87.57
2023-03-06T07:29:15.283Z,86.66
2023-03-06T07:31:41.816Z,87.52
2023-03-06T07:34:12.303Z,87.64
2023-03-06T07:36:38.902Z,87.49
2023-03-06T07:39:05.328Z,86.96
2023-03-06T07:41:31.677Z,87.58
2023-03-06T07:43:58.037Z,86.68
2023-03-06T07:46:24.349Z,86.61
2023-03-06T07:48:50.882Z,87.42
2023-03-06T07:51:19.469Z,87.79
2023-03-06T07:53:46.580Z,87.73
2023-03-06T07:56:13.740Z,87.30
2023-03-06T07:58:45.094Z,87.24
2023-03-06T08:01:20.369Z,87.08
2023-03-06T08:03:47.782Z,87.61
2023-03-06T08:06:17.288Z,87.87
2023-03-06T08:08:45.955Z,88.88
2023-03-06T08:11:14.263Z,89.23
2023-03-06T08:13:40.847Z,89.50
2023-03-06T08:16:07.840Z,89.00
2023-03-06T08:18:35.156Z,89.10
2023-03-06T08:21:06.265Z,89.14
2023-03-06T08:23:33.903Z,89.11
2023-03-06T08:26:03.180Z,89.63
2023-03-06T08:28:29.625Z,90.23
2023-03-06T08:30:56.580Z,90.36
2023-03-06T08:33:24.035Z,90.28
2023-03-06T08:35:50.806Z,91.05
2023-03-06T08:38:17.131Z,91.92
2023-03-06T08:40:43.443Z,91.88
2023-03-06T08:43:12.992Z,91.99
2023-03-06T08:45:40.365Z,91.87
2023-03-06T08:48:06.738Z,92.04
2023-03-06T08:50:33.057Z,91.88
2023-03-06T08:52:59.422Z,92.23
2023-03-06T08:55:25.827Z,92.17
2023-03-06T08:57:52.117Z,92.30
2023-03-06T09:00:18.903Z,92.39
2023-03-06T09:02:45.254Z,92.39
2023-03-06T09:05:11.676Z,91.64
2023-03-06T09:07:38.282Z,91.54
2023-03-06T09:10:04.904Z,91.45
2023-03-06T09:12:37.358Z,91.41
2023-03-06T09:15:11.286Z,90.20
2023-03-06T09:17:37.847Z,90.05
2023-03-06T09:20:06.385Z,90.81
2023-03-06T09:22:32.998Z,90.43
2023-03-06T09:25:00.233Z,90.04
2023-03-06T09:27:27.345Z,89.90
2023-03-06T09:29:54.848Z,89.76
2023-03-06T09:32:22.092Z,89.99
2023-03-06T09:34:48.745Z,89.99
2023-03-06T09:37:16.348Z,89.68
2023-03-06T09:39:43.686Z,89.91
2023-03-06T09:42:17.108Z,89.68
2023-03-06T09:44:50.254Z,89.00
2023-03-06T09:47:44.549Z,89.23
2023-03-06T09:50:38.937Z,89.16
2023-03-06T09:53:16.727Z,89.45
2023-03-06T09:55:48.449Z,90.33
2023-03-06T09:58:21.857Z,92.04
2023-03-06T10:01:16.114Z,91.04
2023-03-06T10:04:08.986Z,91.56
2023-03-06T10:06:48.946Z,92.50
2023-03-06T10:09:40.277Z,92.44
2023-03-06T10:12:20.832Z,93.04
2023-03-06T10:15:26.528Z,90.99
2023-03-06T10:17:53.406Z,89.30
2023-03-06T10:20:26.855Z,89.78
2023-03-06T10:23:00.836Z,89.97
2023-03-06T10:25:35.574Z,89.05
2023-03-06T10:28:29.207Z,85.18
2023-03-06T10:31:08.704Z,84.96
2023-03-06T10:33:58.146Z,84.85
2023-03-06T10:36:28.940Z,85.37
2023-03-06T10:38:57.707Z,86.46
2023-03-06T10:41:32.986Z,88.23
2023-03-06T10:43:59.250Z,88.35
2023-03-06T10:46:37.079Z,87.61
2023-03-06T10:49:36.117Z,87.91
2023-03-06T10:52:06.985Z,89.14
2023-03-06T10:54:36.956Z,90.23
2023-03-06T10:57:24.475Z,90.09
2023-03-06T10:59:56.831Z,89.38
2023-03-06T11:02:26.103Z,88.20
2023-03-06T11:04:54.290Z,86.90
2023-03-06T11:07:26.238Z,85.25
2023-03-06T11:09:58.571Z,83.60
2023-03-06T11:12:39.869Z,80.32
2023-03-06T11:15:15.235Z,79.59
2023-03-06T11:17:51.511Z,80.99
2023-03-06T11:20:21.334Z,83.29
2023-03-06T11:22:53.838Z,85.75
2023-03-06T11:25:24.260Z,87.67
2023-03-06T11:27:58.366Z,88.17
2023-03-06T11:30:32.525Z,87.90
2023-03-06T11:33:03.399Z,87.98
2023-03-06T11:35:44.585Z,87.30
2023-03-06T11:38:20.694Z,87.69
2023-03-06T11:40:53.719Z,88.08
2023-03-06T11:43:41.797Z,87.17
2023-03-06T11:46:20.651Z,87.44
2023-03-06T11:48:54.056Z,86.61
2023-03-06T11:51:35.157Z,85.34
2023-03-06T11:54:02.351Z,83.72
2023-03-06T11:56:35.584Z,83.85
2023-03-06T11:59:24.159Z,83.70
2023-03-06T12:01:57.868Z,81.45
2023-03-06T12:04:49.282Z,80.21
2023-03-06T12:07:20.828Z,79.65
2023-03-06T12:09:55.541Z,81.27
2023-03-06T12:12:30.626Z,81.70
2023-03-06T12:15:12.456Z,78.51
2023-03-06T12:18:01.921Z,77.62
2023-03-06T12:21:00.331Z,77.37
2023-03-06T12:23:35.620Z,76.28
2023-03-06T12:26:11.052Z,76.76
2023-03-06T12:29:00.608Z,76.68
2023-03-06T12:31:39.591Z,76.26
2023-03-06T12:34:20.929Z,72.99
2023-03-06T12:36:59.112Z,70.84
2023-03-06T12:39:47.862Z,73.17
2023-03-06T12:42:38.531Z,73.88
2023-03-06T12:45:29.332Z,73.92
2023-03-06T12:47:56.777Z,72.22
2023-03-06T12:50:29.311Z,73.68
2023-03-06T12:52:58.851Z,73.22
2023-03-06T12:55:26.173Z,72.55
2023-03-06T12:57:53.170Z,71.34
2023-03-06T13:00:34.398Z,69.74
2023-03-06T13:03:13.598Z,68.81
2023-03-06T13:06:00.734Z,68.43
2023-03-06T13:09:08.243Z,68.61
2023-03-06T13:11:56.088Z,65.82
2023-03-06T13:14:54.062Z,65.89
2023-03-06T13:17:29.745Z,67.12
2023-03-06T13:20:26.713Z,68.67
2023-03-06T13:22:53.039Z,69.28
2023-03-06T13:25:19.321Z,69.80
2023-03-06T13:27:51.976Z,68.67
2023-03-06T13:30:36.681Z,66.70
2023-03-06T13:33:28.841Z,65.61
2023-03-06T13:36:20.290Z,67.37
2023-03-06T13:38:52.787Z,67.18
2023-03-06T13:41:22.832Z,67.33
2023-03-06T13:43:51.260Z,66.06
2023-03-06T13:46:23.301Z,64.52
2023-03-06T13:49:13.112Z,65.41
2023-03-06T13:51:50.126Z,65.22
2023-03-06T13:54:27.725Z,64.32
2023-03-06T13:57:31.725Z,64.71
2023-03-06T14:00:19.559Z,64.42
2023-03-06T14:03:18.191Z,64.71
2023-03-06T14:05:47.287Z,65.12
2023-03-06T14:08:19.213Z,65.26
2023-03-06T14:10:48.901Z,64.75
2023-03-06T14:13:38.379Z,60.67
2023-03-06T14:16:17.010Z,61.62
2023-03-06T14:18:48.961Z,61.73
2023-03-06T14:21:25.893Z,60.29
2023-03-06T14:24:00.763Z,56.44
2023-03-06T14:26:31.995Z,57.43
2023-03-06T14:29:00.498Z,57.51
2023-03-06T14:31:34.014Z,56.58
2023-03-06T14:34:03.642Z,55.21
2023-03-06T14:36:42.004Z,58.17
2023-03-06T14:39:15.284Z,53.93
2023-03-06T14:41:41.629Z,56.82
2023-03-06T14:44:09.235Z,54.98
2023-03-06T14:46:35.952Z,57.43
2023-03-06T14:49:07.353Z,57.50
2023-03-06T14:51:40.507Z,52.08
2023-03-06T14:54:07.216Z,53.16
2023-03-06T14:56:39.190Z,53.00
2023-03-06T14:59:12.198Z,52.50
2023-03-06T15:01:41.473Z,52.65
2023-03-06T15:04:28.032Z,55.26
2023-03-06T15:06:56.233Z,54.47
2023-03-06T15:09:29.596Z,54.09
2023-03-06T15:11:59.146Z,52.04
2023-03-06T15:14:40.337Z,53.66
2023-03-06T15:17:18.657Z,55.36
2023-03-06T15:19:47.096Z,55.56
2023-03-06T15:22:24.716Z,52.73
2023-03-06T15:24:51.341Z,54.41
2023-03-06T15:27:26.674Z,55.78
2023-03-06T15:29:53.059Z,56.48
2023-03-06T15:32:34.726Z,54.47
2023-03-06T15:35:32.463Z,56.44
2023-03-06T15:37:59.489Z,55.17
2023-03-06T15:40:28.280Z,56.10
2023-03-06T15:42:55.047Z,56.63
2023-03-06T15:45:23.504Z,55.83
2023-03-06T15:47:53.373Z,56.86
2023-03-06T15:50:23.230Z,56.46
2023-03-06T15:52:50.180Z,59.52
2023-03-06T15:55:19.576Z,59.58
2023-03-06T15:57:50.579Z,57.80
2023-03-06T16:00:35.030Z,57.24
2023-03-06T16:03:02.096Z,58.26
2023-03-06T16:05:28.975Z,59.89
2023-03-06T16:07:55.843Z,60.58
2023-03-06T16:10:25.129Z,60.76
2023-03-06T16:12:55.366Z,60.74
2023-03-06T16:15:24.649Z,61.02
2023-03-06T16:17:51.045Z,60.75
2023-03-06T16:20:20.211Z,60.92
2023-03-06T16:22:48.218Z,61.44
2023-03-06T16:25:14.728Z,61.79
2023-03-06T16:27:50.580Z,62.49
2023-03-06T16:30:18.717Z,62.23
2023-03-06T16:32:45.625Z,63.01
2023-03-06T16:35:13.287Z,63.33
2023-03-06T16:37:40.941Z,64.19
2023-03-06T16:40:32.651Z,64.98
2023-03-06T16:42:59.277Z,66.58
2023-03-06T16:45:25.557Z,68.06
2023-03-06T16:47:51.943Z,68.44
2023-03-06T16:50:30.104Z,68.96
2023-03-06T16:52:57.506Z,68.18
2023-03-06T16:55:25.861Z,67.80
2023-03-06T16:57:53.178Z,68.36
2023-03-06T17:00:20.949Z,68.84
2023-03-06T17:02:52.113Z,69.99
2023-03-06T17:05:19.660Z,71.37
2023-03-06T17:07:46.012Z,70.97
2023-03-06T17:10:15.473Z,71.38
2023-03-06T17:12:42.777Z,71.72
2023-03-06T17:15:09.754Z,71.70
2023-03-06T17:17:36.152Z,71.97
2023-03-06T17:20:03.456Z,72.08
2023-03-06T17:22:33.247Z,72.68
2023-03-06T17:25:04.654Z,73.91
2023-03-06T17:27:30.990Z,73.29
2023-03-06T17:29:57.888Z,73.06
2023-03-06T17:32:24.271Z,73.70
2023-03-06T17:34:50.647Z,73.94
2023-03-06T17:37:17.021Z,74.29
2023-03-06T17:39:43.407Z,74.78
2023-03-06T17:42:09.715Z,75.12
2023-03-06T17:44:36.113Z,75.55
2023-03-06T17:47:02.916Z,76.03
2023-03-06T17:49:29.475Z,76.33
2023-03-06T17:51:56.507Z,77.02
2023-03-06T17:54:23.194Z,77.21
2023-03-06T17:56:49.512Z,77.47
2023-03-06T17:59:15.813Z,77.54
2023-03-06T18:01:42.223Z,77.50
2023-03-06T18:04:08.516Z,77.55
2023-03-06T18:06:34.838Z,77.76
2023-03-06T18:09:01.206Z,77.78
2023-03-06T18:11:27.774Z,77.89
2023-03-06T18:13:54.309Z,77.99
2023-03-06T18:16:23.090Z,77.92
2023-03-06T18:18:53.938Z,77.95
2023-03-06T18:21:21.002Z,78.26
2023-03-06T18:23:47.381Z,78.35
2023-03-06T18:26:19.519Z,78.86
2023-03-06T18:28:48.192Z,79.13
2023-03-06T18:31:26.194Z,79.35
2023-03-06T18:33:55.265Z,79.52
2023-03-06T18:36:23.732Z,79.85
2023-03-06T18:38:50.474Z,80.17
2023-03-06T18:41:18.472Z,80.08
2023-03-06T18:43:45.579Z,80.47
2023-03-06T18:46:12.256Z,80.74
2023-03-06T18:48:38.581Z,81.42
2023-03-06T18:51:10.216Z,81.96
2023-03-06T18:53:36.661Z,82.51
2023-03-06T18:56:03.442Z,82.62
2023-03-06T18:58:29.850Z,82.03
2023-03-06T19:00:58.930Z,82.46
2023-03-06T19:03:25.613Z,82.64
2023-03-06T19:05:52.018Z,82.64
2023-03-06T19:08:18.695Z,82.90
2023-03-06T19:10:46.033Z,83.11
2023-03-06T19:13:13.202Z,83.25
2023-03-06T19:15:44.756Z,83.79
2023-03-06T19:18:12.404Z,83.75
2023-03-06T19:20:38.724Z,84.24
2023-03-06T19:23:05.156Z,84.25
2023-03-06T19:25:31.476Z,84.36
2023-03-06T19:27:57.799Z,84.12
2023-03-06T19:30:24.272Z,83.59
2023-03-06T19:32:50.943Z,83.58
2023-03-06T19:35:17.420Z,83.42
2023-03-06T19:37:43.721Z,83.80
2023-03-06T19:40:10.718Z,83.32
2023-03-06T19:42:37.018Z,83.33
2023-03-06T19:45:04.238Z,83.29
2023-03-06T19:47:30.543Z,83.61
2023-03-06T19:49:57.079Z,84.25
2023-03-06T19:52:23.525Z,84.70
2023-03-06T19:54:50.813Z,85.03
2023-03-06T19:57:17.397Z,85.93
2023-03-06T19:59:43.745Z,86.51
2023-03-06T20:02:11.058Z,87.52
2023-03-06T20:04:37.453Z,88.34
2023-03-06T20:07:04.303Z,88.31
2023-03-06T20:09:32.213Z,88.46
2023-03-06T20:12:01.666Z,88.59
2023-03-06T20:14:28.192Z,89.18
2023-03-06T20:16:54.489Z,89.34
2023-03-06T20:19:20.796Z,89.29
2023-03-06T20:21:47.389Z,89.26
2023-03-06T20:24:15.022Z,89.43
2023-03-06T20:26:41.324Z,89.71
2023-03-06T20:29:07.651Z,90.06
2023-03-06T20:31:33.993Z,89.65
2023-03-06T20:34:00.337Z,90.31
2023-03-06T20:36:29.372Z,90.76
2023-03-06T20:38:58.479Z,90.99
2023-03-06T20:41:27.355Z,90.79
2023-03-06T20:43:53.820Z,91.09
2023-03-06T20:46:21.969Z,91.49
2023-03-06T20:48:50.054Z,91.52
2023-03-06T20:51:19.053Z,91.71
2023-03-06T20:53:50.261Z,92.04
2023-03-06T20:56:20.184Z,92.19
2023-03-06T20:58:46.933Z,91.93
2023-03-06T21:01:22.045Z,92.12
2023-03-06T21:03:49.036Z,92.29
2023-03-06T21:06:15.631Z,92.56
2023-03-06T21:08:42.010Z,92.84
2023-03-06T21:11:08.804Z,93.17
2023-03-06T21:13:35.430Z,93.76
2023-03-06T21:16:10.782Z,93.72
2023-03-06T21:18:37.255Z,94.11
2023-03-06T21:21:11.841Z,93.43
2023-03-06T21:23:38.532Z,93.81
2023-03-06T21:26:05.555Z,93.84
2023-03-06T21:28:32.157Z,94.29
2023-03-06T21:31:01.831Z,94.23
2023-03-06T21:33:28.750Z,94.11
2023-03-06T21:35:55.091Z,94.10
2023-03-06T21:38:21.437Z,94.27
2023-03-06T21:40:47.787Z,94.62
2023-03-06T21:43:14.103Z,94.67
2023-03-06T21:45:45.532Z,94.53
2023-03-06T21:48:12.244Z,94.34
2023-03-06T21:50:38.593Z,94.05
2023-03-06T21:53:04.974Z,93.87
2023-03-06T21:55:31.324Z,93.29
2023-03-06T21:57:57.635Z,93.89
2023-03-06T22:00:24.052Z,93.72
2023-03-06T22:02:50.620Z,93.70
2023-03-06T22:05:16.949Z,93.55
2023-03-06T22:07:43.465Z,93.05
2023-03-06T22:10:12.180Z,93.20
2023-03-06T22:12:39.408Z,93.48
2023-03-06T22:15:06.674Z,93.23
2023-03-06T22:17:32.974Z,93.26
2023-03-06T22:19:59.305Z,93.40
2023-03-06T22:22:25.795Z,92.58
2023-03-06T22:24:52.124Z,91.92
2023-03-06T22:27:18.455Z,91.73
2023-03-06T22:29:45.844Z,91.21
2023-03-06T22:32:12.396Z,90.93
2023-03-06T22:34:38.848Z,91.15
2023-03-06T22:37:05.174Z,90.49
2023-03-06T22:39:31.512Z,90.15
2023-03-06T22:41:57.834Z,90.02
2023-03-06T22:44:24.192Z,89.37
2023-03-06T22:46:50.485Z,88.79
2023-03-06T22:49:17.177Z,87.62
2023-03-06T22:51:43.692Z,87.44
2023-03-06T22:54:11.023Z,87.87
2023-03-06T22:56:37.401Z,87.97
2023-03-06T22:59:03.906Z,88.00
2023-03-06T23:01:32.868Z,88.46
2023-03-06T23:04:04.054Z,88.41
2023-03-06T23:06:33.286Z,88.54
2023-03-06T23:09:05.237Z,87.85
2023-03-06T23:11:32.520Z,87.91
2023-03-06T23:13:59.922Z,87.99
2023-03-06T23:16:26.340Z,87.16
2023-03-06T23:18:53.629Z,86.87
2023-03-06T23:21:21.951Z,86.23
2023-03-06T23:23:50.308Z,86.92
2023-03-06T23:26:18.223Z,86.65
2023-03-06T23:28:44.902Z,86.91
2023-03-06T23:31:16.996Z,86.98
2023-03-06T23:33:43.377Z,87.53
2023-03-06T23:36:12.745Z,87.13
2023-03-06T23:38:39.579Z,87.80
2023-03-06T23:41:09.041Z,88.60
2023-03-06T23:43:35.371Z,89.37
2023-03-06T23:46:02.093Z,89.56
2023-03-06T23:48:29.084Z,89.84
2023-03-06T23:50:55.894Z,90.20
2023-03-06T23:53:22.696Z,90.75
2023-03-06T23:55:50.159Z,91.07
2023-03-06T23:58:17.980Z,90.53
